Eurika — LYRZ — position and weather

sailwx.info

Track history (hours):
 
Tides and Currents Weather Stations Pressure Air Temp Water Temp Dewpoint Dewpoint Depression Visibility Wind Speed Wind Dir Waves Ship Positions

Eurika

Last reported at 2015-May-29 15:16 UTC. Time now 2015-May-29 16:17 UTC.
Position N 43°23' E 004°48'.

Length 79 m; draft 2.4 m.

MMSI: 277335000.

Date/timePositionNaut miles runAvg speedWind from/ knotsBaromVisibWave heightAir tempDewpointWater temp
2015-May-29 15:16N 43°23' E 004°48'0 0.0
2015-May-29 14:33N 43°23' E 004°48'0 0.0
2015-May-29 13:33N 43°23' E 004°48'0 0.0
2015-May-29 12:33N 43°23' E 004°48'0 0.0
2015-May-29 11:33N 43°23' E 004°48'0 0.0
2015-May-29 10:33N 43°23' E 004°48'0 0.0
2015-May-29 09:33N 43°23' E 004°48'0 0.0
2015-May-29 08:33N 43°23' E 004°48'0 0.0
2015-May-29 07:33N 43°23' E 004°48'2 2.0
2015-May-29 06:33N 43°23' E 004°51'6 6.2
2015-May-29 05:34N 43°21' E 004°59'7 6.6
2015-May-29 04:33N 43°15' E 005°03'8 6.9
2015-May-29 03:28N 43°09' E 005°10'6 6.8
2015-May-29 02:33N 43°04' E 005°15'7 6.3
2015-May-29 01:24N 42°58' E 005°20'6 6.7
2015-May-29 00:33N 42°53' E 005°25'7 6.7
2015-May-28 23:29N 42°48' E 005°31'6 6.7
2015-May-28 22:33N 42°43' E 005°36'7 6.6
2015-May-28 21:33N 42°37' E 005°41'7 6.7
2015-May-28 20:31N 42°32' E 005°47'6 6.4
2015-May-28 19:31N 42°26' E 005°51'6 6.5
2015-May-28 18:33N 42°21' E 005°56'8 7.1
2015-May-28 17:30N 42°15' E 006°02'7 6.9
2015-May-28 16:33N 42°10' E 006°08'  
2015-May-25 00:29N 43°03' E 005°14'11 8.6
2015-May-24 23:13N 43°12' E 005°06'10 8.5
2015-May-24 22:05N 43°20' E 004°58'4 8.3
2015-May-24 21:34N 43°23' E 004°55'  
Track history (hours):
 
Tides and Currents Weather Stations Pressure Air Temp Water Temp Dewpoint Dewpoint Depression Visibility Wind Speed Wind Dir Waves Ship Positions

Eurika

Last reported at 2015-May-29 15:16 UTC. Time now 2015-May-29 16:17 UTC.
Position N 43°23' E 004°48'.

Length 79 m; draft 2.4 m.

MMSI: 277335000.

Date/timePositionNaut miles runAvg speedWind from/ knotsBaromVisibWave heightAir tempDewpointWater temp
2015-May-29 15:16N 43°23' E 004°48'0 0.0
2015-May-29 14:33N 43°23' E 004°48'0 0.0
2015-May-29 13:33N 43°23' E 004°48'0 0.0
2015-May-29 12:33N 43°23' E 004°48'0 0.0
2015-May-29 11:33N 43°23' E 004°48'0 0.0
2015-May-29 10:33N 43°23' E 004°48'0 0.0
2015-May-29 09:33N 43°23' E 004°48'0 0.0
2015-May-29 08:33N 43°23' E 004°48'0 0.0
2015-May-29 07:33N 43°23' E 004°48'2 2.0
2015-May-29 06:33N 43°23' E 004°51'6 6.2
2015-May-29 05:34N 43°21' E 004°59'7 6.6
2015-May-29 04:33N 43°15' E 005°03'8 6.9
2015-May-29 03:28N 43°09' E 005°10'6 6.8
2015-May-29 02:33N 43°04' E 005°15'7 6.3
2015-May-29 01:24N 42°58' E 005°20'6 6.7
2015-May-29 00:33N 42°53' E 005°25'7 6.7
2015-May-28 23:29N 42°48' E 005°31'6 6.7
2015-May-28 22:33N 42°43' E 005°36'7 6.6
2015-May-28 21:33N 42°37' E 005°41'7 6.7
2015-May-28 20:31N 42°32' E 005°47'6 6.4
2015-May-28 19:31N 42°26' E 005°51'6 6.5
2015-May-28 18:33N 42°21' E 005°56'8 7.1
2015-May-28 17:30N 42°15' E 006°02'7 6.9
2015-May-28 16:33N 42°10' E 006°08'  
2015-May-25 00:29N 43°03' E 005°14'11 8.6
2015-May-24 23:13N 43°12' E 005°06'10 8.5
2015-May-24 22:05N 43°20' E 004°58'4 8.3
2015-May-24 21:34N 43°23' E 004°55'  

Dump ship's entire track history